Bandar Abbas International Airport
OIKB : now visible

Airfield :











YOU CAN JOIN US ON...

 
LOGIN :

Register | Disclaimer

   EN    FR    IT 

 









Legend :    VFR   Marginal VFR   IFR   Intensive IFR   Very Intensive IFR
Visi :
Ceiling :
>= 8 km
>= 3000ft
5 to 8 km
1000 to 3000 ft
1500m to 5 km
500 to 1000 ft
800 to 1500m
200 to 500 ft
< 800m
< 200 ft
Symbols :   Thunderstorms  Fog  Heavy snow  Heavy precipitations  Wind > 20 kt






- Airport Elevation : 22 ft
- IATA code : BND


OIKB - Bandar Abbas International

CURRENT METAR :
  • 062200Z 27004KT 4000 BR NSC 24/21 Q1011 A2987

EXPIRED METARs :
  • 062130Z 26004KT 5000 BR NSC 24/21 Q1011 A2987
  • 062100Z 26004KT 5000 BR NSC 24/21 Q1011 A2987
  • 062030Z 26006KT 5000 BR NSC 24/21 Q1011 A2988
  • 062000Z 26006KT 5000 BR NSC 24/21 Q1011 A2988
  • 061930Z 20006KT 5000 BR NSC 25/21 Q1011 A2988

TAF TAF OIKB
Valid from the 06 at 18:00 until the 08 at 00:00 UTC


061730Z 0618/0724 20006KT 6000 NSC
BECMG 0619/0621 5000 BR/HZ
TEMPO 0622/0703 3000 BR
BECMG 0705/0707 7000
TEMPO 0709/0712 22016KT
BECMG 0720/0722 4000 BR/HZ



MET'MAP, your aeronautical weather chart ! - Copyright ORBIFLY December 2007 - Disclaimer

ORBIFLY MET'MAP TEAM :

Programming & Development : Alexandra Zaïnal
Concept & original design : Baudouin d'Aumeries
Assistance for programming : Marc-Olivier Méhu
Technical & hardware support : Manuel Goepfert

Contact : metmap@orbifly.com




SOURCES & CREDITS :

   NOAA       Earth
Advisory